Time;durP1;ratioP1;P1;durP2;ratioP2;P2;SDS_P1;SDS_P2;PMS_P1;PMS_P2;Temp;Humidity;BMP_temperature;BMP_pressure;BME280_temperature;BME280_humidity;BME280_pressure;Samples;Min_cycle;Max_cycle;Signal;HPM_P1;HPM_P2
2023/10/01 00:01:44;;;;;;;15.23;9.00;;;11.80;99.90;;;;;;4974401;28;20180;-65
2023/10/01 00:04:11;;;;;;;12.55;8.07;;;11.80;99.90;;;;;;4974375;28;20219;-65
2023/10/01 00:06:37;;;;;;;12.30;8.45;;;11.80;99.90;;;;;;4974230;28;20658;-64
2023/10/01 00:09:06;;;;;;;14.73;8.40;;;11.90;99.90;;;;;;4974454;28;20208;-65
2023/10/01 00:11:34;;;;;;;12.55;8.65;;;11.90;99.90;;;;;;4974229;28;20174;-64
2023/10/01 00:14:01;;;;;;;15.02;8.82;;;11.90;99.90;;;;;;4956972;28;20180;-64
2023/10/01 00:16:29;;;;;;;16.23;8.20;;;11.80;99.90;;;;;;4949101;28;20251;-64
2023/10/01 00:18:55;;;;;;;11.10;7.90;;;11.80;99.90;;;;;;4974552;28;20288;-64
2023/10/01 00:21:20;;;;;;;9.57;7.85;;;11.80;99.90;;;;;;4973890;28;20324;-64
2023/10/01 00:23:46;;;;;;;11.05;7.55;;;11.70;99.90;;;;;;4974334;28;20188;-64
2023/10/01 00:26:12;;;;;;;11.20;7.32;;;11.80;99.90;;;;;;4974231;28;20654;-64
2023/10/01 00:28:38;;;;;;;11.30;7.88;;;11.80;99.90;;;;;;4974180;28;20697;-64
2023/10/01 00:31:03;;;;;;;13.10;8.02;;;11.80;99.90;;;;;;4974211;28;20208;-64
2023/10/01 00:33:29;;;;;;;12.60;8.07;;;11.80;99.90;;;;;;4974368;28;20181;-64
2023/10/01 00:35:55;;;;;;;11.13;7.90;;;11.80;99.90;;;;;;4975439;28;20551;-65
2023/10/01 00:38:21;;;;;;;10.70;8.02;;;11.70;99.90;;;;;;4976839;28;20251;-64
2023/10/01 00:40:49;;;;;;;11.35;7.30;;;11.60;99.90;;;;;;4975052;28;20193;-64
2023/10/01 00:43:15;;;;;;;13.80;8.25;;;11.70;99.90;;;;;;4974142;28;20596;-64
2023/10/01 00:45:41;;;;;;;11.68;7.68;;;11.80;99.90;;;;;;4974153;28;20252;-64
2023/10/01 00:48:14;;;;;;;12.90;7.55;;;11.70;99.90;;;;;;4974173;28;20272;-64
2023/10/01 00:50:41;;;;;;;12.15;8.00;;;11.60;99.90;;;;;;4974695;28;20684;-64
2023/10/01 00:53:10;;;;;;;11.20;7.35;;;11.60;99.90;;;;;;4959993;28;20185;-64
2023/10/01 00:55:37;;;;;;;11.43;8.43;;;11.50;99.90;;;;;;4977602;28;20545;-64
2023/10/01 00:58:04;;;;;;;16.13;9.27;;;11.50;99.90;;;;;;4959805;28;20295;-64
2023/10/01 01:00:29;;;;;;;13.32;8.02;;;11.40;99.90;;;;;;4977655;28;20529;-64
2023/10/01 01:05:41;;;;;;;11.43;8.55;;;11.50;99.90;;;;;;4977391;28;20244;-65
2023/10/01 01:08:21;;;;;;;10.18;7.90;;;11.50;99.90;;;;;;4977335;28;20582;-64
2023/10/01 01:10:53;;;;;;;13.65;7.88;;;11.40;99.90;;;;;;4977190;28;20279;-64
2023/10/01 01:13:19;;;;;;;13.82;8.18;;;11.30;99.90;;;;;;4977216;28;20599;-64
2023/10/01 01:15:47;;;;;;;11.70;8.20;;;11.30;99.90;;;;;;4977020;28;20209;-64
2023/10/01 01:18:20;;;;;;;14.60;8.68;;;11.20;99.90;;;;;;4976806;28;20217;-64
2023/10/01 01:20:46;;;;;;;8.27;7.20;;;11.10;99.90;;;;;;4976807;28;20201;-64
2023/10/01 01:23:21;;;;;;;13.77;7.53;;;11.10;99.90;;;;;;4977331;28;20173;-64
2023/10/01 01:25:49;;;;;;;11.52;8.05;;;11.10;99.90;;;;;;4976760;28;20185;-65
2023/10/01 01:28:15;;;;;;;11.07;8.68;;;11.10;99.90;;;;;;4977108;28;20173;-64
2023/10/01 01:30:47;;;;;;;12.60;8.32;;;11.10;99.90;;;;;;4976646;28;20247;-64
2023/10/01 01:33:13;;;;;;;11.00;8.77;;;11.10;99.90;;;;;;4975489;28;20179;-64
2023/10/01 01:35:39;;;;;;;10.88;7.90;;;11.00;99.90;;;;;;4976571;28;20177;-64
2023/10/01 01:38:07;;;;;;;10.70;7.90;;;11.10;99.90;;;;;;4976553;28;20252;-65
2023/10/01 01:40:36;;;;;;;11.23;8.43;;;11.00;99.90;;;;;;4977140;28;20186;-64
2023/10/01 01:43:15;;;;;;;16.33;9.43;;;11.00;99.90;;;;;;4976735;28;20169;-64
2023/10/01 01:45:45;;;;;;;12.50;8.77;;;11.00;99.90;;;;;;4977050;28;20525;-64
2023/10/01 01:50:58;;;;;;;11.30;8.45;;;11.10;99.90;;;;;;4976248;28;20305;-64
2023/10/01 01:53:36;;;;;;;12.93;8.85;;;11.10;99.90;;;;;;4976329;28;20162;-64
2023/10/01 01:56:12;;;;;;;16.65;9.50;;;11.10;99.90;;;;;;4976876;28;20196;-64
2023/10/01 01:58:40;;;;;;;11.07;7.95;;;11.10;99.90;;;;;;4976422;28;20228;-64
2023/10/01 02:01:17;;;;;;;10.15;7.57;;;11.20;99.90;;;;;;4976617;28;20197;-64
2023/10/01 02:03:46;;;;;;;9.05;7.28;;;11.20;99.90;;;;;;4976353;28;20216;-64
2023/10/01 02:06:13;;;;;;;10.75;7.00;;;11.20;99.90;;;;;;4976114;28;20185;-64
2023/10/01 02:09:12;;;;;;;9.18;6.47;;;11.20;99.90;;;;;;4976027;28;20709;-64
2023/10/01 02:11:32;;;;;;;9.23;6.75;;;11.20;99.90;;;;;;4975171;28;20213;-64
2023/10/01 02:13:59;;;;;;;10.68;6.88;;;11.30;99.90;;;;;;4975952;28;20169;-64
2023/10/01 02:19:36;;;;;;;13.63;8.07;;;11.30;99.90;;;;;;4975757;28;20209;-64
2023/10/01 02:22:00;;;;;;;10.40;7.20;;;11.20;99.90;;;;;;4967453;28;20193;-64
2023/10/01 02:24:45;;;;;;;10.10;8.25;;;11.20;99.90;;;;;;4975795;28;20594;-65
2023/10/01 02:27:26;;;;;;;13.70;8.75;;;11.10;99.90;;;;;;4958386;28;20271;-64
2023/10/01 02:32:49;;;;;;;12.90;8.35;;;11.10;99.90;;;;;;4976137;28;20228;-64
2023/10/01 02:35:34;;;;;;;10.02;7.70;;;11.00;99.90;;;;;;4975637;28;20153;-64
2023/10/01 02:38:03;;;;;;;9.55;7.82;;;11.00;99.90;;;;;;4975666;28;20248;-64
2023/10/01 02:40:36;;;;;;;9.73;7.55;;;10.90;99.90;;;;;;4975636;28;20213;-64
2023/10/01 02:43:12;;;;;;;11.63;7.38;;;10.90;99.90;;;;;;4975431;28;20158;-64
2023/10/01 02:45:41;;;;;;;8.57;7.28;;;10.90;99.90;;;;;;4975346;28;20199;-64
2023/10/01 02:48:16;;;;;;;13.10;7.60;;;10.90;99.90;;;;;;4975740;28;20187;-65
2023/10/01 02:50:45;;;;;;;9.90;7.05;;;11.00;99.90;;;;;;4975118;28;20575;-65
2023/10/01 02:53:14;;;;;;;9.32;7.28;;;11.00;99.90;;;;;;4975221;28;20208;-64
2023/10/01 02:55:44;;;;;;;11.98;8.23;;;10.90;99.90;;;;;;4975184;28;20250;-65
2023/10/01 02:58:20;;;;;;;10.00;7.80;;;10.90;99.90;;;;;;4973785;28;20193;-64
2023/10/01 03:00:46;;;;;;;9.52;7.63;;;10.90;99.90;;;;;;4975819;28;20610;-64
2023/10/01 03:03:17;;;;;;;11.60;7.70;;;10.80;99.90;;;;;;4974915;28;20643;-64
2023/10/01 03:05:46;;;;;;;10.75;7.53;;;10.70;99.90;;;;;;4974859;28;20165;-65
2023/10/01 03:11:11;;;;;;;9.35;7.22;;;10.60;99.90;;;;;;4942295;28;20300;-64
2023/10/01 03:13:38;;;;;;;8.45;7.07;;;10.60;99.90;;;;;;4974676;28;20204;-64
2023/10/01 03:18:54;;;;;;;10.23;7.53;;;10.60;99.90;;;;;;4975001;28;20216;-64
2023/10/01 03:22:13;;;;;;;9.00;7.63;;;10.70;99.90;;;;;;4957175;28;20688;-64
2023/10/01 03:24:09;;;;;;;9.07;6.95;;;10.70;99.90;;;;;;4974383;28;20181;-64
2023/10/01 03:26:35;;;;;;;10.25;7.47;;;10.60;99.90;;;;;;4957212;28;20218;-64
2023/10/01 03:29:34;;;;;;;10.18;7.88;;;10.60;99.90;;;;;;4974598;28;20184;-64
2023/10/01 03:32:27;;;;;;;10.77;7.68;;;10.50;99.90;;;;;;4974701;28;20597;-64
2023/10/01 03:34:52;;;;;;;11.52;7.65;;;10.50;99.90;;;;;;4969723;28;20237;-64
2023/10/01 03:37:27;;;;;;;9.60;7.70;;;10.50;99.90;;;;;;4974299;28;20193;-65
2023/10/01 03:40:05;;;;;;;9.73;7.57;;;10.50;99.90;;;;;;4957156;28;20212;-64
2023/10/01 03:42:37;;;;;;;11.50;8.00;;;10.40;99.90;;;;;;4974873;28;20164;-64
2023/10/01 03:47:36;;;;;;;12.65;7.88;;;10.50;99.90;;;;;;4974884;28;20235;-65
2023/10/01 03:50:03;;;;;;;10.13;7.53;;;10.50;99.90;;;;;;4974070;28;20228;-64
2023/10/01 03:52:29;;;;;;;16.23;8.82;;;10.60;99.90;;;;;;4974487;28;20579;-65
2023/10/01 03:57:52;;;;;;;8.40;7.18;;;10.60;99.90;;;;;;4974551;28;20188;-65
2023/10/01 04:00:31;;;;;;;9.07;7.70;;;10.70;99.90;;;;;;4974461;28;20197;-64
2023/10/01 04:02:57;;;;;;;11.73;8.25;;;10.70;99.90;;;;;;4974582;28;20162;-64
2023/10/01 04:05:27;;;;;;;9.82;7.55;;;10.80;99.90;;;;;;4974168;28;20654;-65
2023/10/01 04:07:55;;;;;;;13.93;9.38;;;10.90;99.90;;;;;;4974670;28;20169;-65
2023/10/01 04:10:28;;;;;;;9.82;8.02;;;11.00;99.90;;;;;;4972961;28;20624;-65
2023/10/01 04:13:12;;;;;;;10.52;8.25;;;11.00;99.90;;;;;;4974552;28;20165;-64
2023/10/01 04:15:41;;;;;;;13.05;8.60;;;11.00;99.90;;;;;;4974512;28;20160;-64
2023/10/01 04:18:09;;;;;;;8.93;7.70;;;11.00;99.90;;;;;;4956690;28;20209;-65
2023/10/01 04:20:36;;;;;;;14.77;8.27;;;11.00;99.90;;;;;;4973882;28;20189;-64
2023/10/01 04:23:04;;;;;;;10.48;7.47;;;11.10;99.90;;;;;;4972938;28;20178;-65
2023/10/01 04:25:38;;;;;;;8.85;7.07;;;11.00;99.90;;;;;;4975084;28;20672;-65
2023/10/01 04:28:08;;;;;;;13.63;8.38;;;11.00;99.90;;;;;;4977823;28;20184;-65
2023/10/01 04:30:34;;;;;;;11.40;7.70;;;11.10;99.90;;;;;;4977787;28;20197;-64
2023/10/01 04:33:19;;;;;;;15.35;8.70;;;11.10;99.90;;;;;;4960391;28;20193;-64
2023/10/01 04:35:55;;;;;;;11.07;7.13;;;11.10;99.90;;;;;;4960182;28;20181;-64
2023/10/01 04:38:22;;;;;;;12.60;8.25;;;11.10;99.90;;;;;;4977964;28;20257;-65
2023/10/01 04:40:49;;;;;;;12.88;8.13;;;11.20;99.90;;;;;;4977679;28;20563;-64
2023/10/01 04:43:19;;;;;;;12.95;8.48;;;11.20;99.90;;;;;;4977641;28;20169;-64
2023/10/01 04:45:45;;;;;;;9.93;7.65;;;11.20;99.90;;;;;;4977654;28;20181;-64
2023/10/01 04:48:33;;;;;;;10.50;7.53;;;11.30;99.90;;;;;;4977517;28;20185;-64
2023/10/01 04:50:59;;;;;;;14.27;8.02;;;11.30;99.90;;;;;;4977429;28;20218;-64
2023/10/01 04:53:25;;;;;;;11.75;9.18;;;11.40;99.90;;;;;;4978167;28;20255;-64
2023/10/01 04:56:05;;;;;;;12.32;8.02;;;11.40;99.90;;;;;;4977722;28;20180;-64
2023/10/01 04:58:32;;;;;;;14.25;8.20;;;11.40;99.90;;;;;;4977757;28;20231;-64
2023/10/01 05:00:58;;;;;;;9.98;8.07;;;11.50;99.90;;;;;;4978219;28;20668;-64
2023/10/01 05:03:48;;;;;;;12.90;8.38;;;11.50;99.90;;;;;;4977602;28;20549;-64
2023/10/01 05:06:20;;;;;;;9.90;7.60;;;11.50;99.90;;;;;;4976514;28;20662;-64
2023/10/01 05:08:51;;;;;;;10.40;7.82;;;11.50;99.90;;;;;;4977154;28;20239;-64
2023/10/01 05:11:21;;;;;;;9.90;7.15;;;11.50;99.90;;;;;;4977399;28;20196;-65
2023/10/01 05:13:51;;;;;;;11.63;7.50;;;11.60;99.90;;;;;;4977260;28;20589;-64
2023/10/01 05:16:20;;;;;;;12.82;7.55;;;11.60;99.90;;;;;;4977301;28;20172;-64
2023/10/01 05:18:46;;;;;;;10.07;7.50;;;11.60;99.90;;;;;;4959490;28;20208;-64
2023/10/01 05:21:18;;;;;;;9.25;6.32;;;11.60;99.90;;;;;;4976746;28;20244;-64
2023/10/01 05:23:45;;;;;;;12.10;7.55;;;11.60;99.90;;;;;;4975659;28;20197;-64
2023/10/01 05:26:11;;;;;;;10.40;7.32;;;11.60;99.90;;;;;;4976890;28;20254;-64
2023/10/01 05:28:44;;;;;;;10.25;7.25;;;11.60;99.90;;;;;;4977118;28;20185;-64
2023/10/01 05:31:15;;;;;;;9.05;7.38;;;11.60;99.90;;;;;;4976876;28;20189;-65
2023/10/01 05:33:51;;;;;;;11.23;8.18;;;11.70;99.90;;;;;;4976985;28;20162;-64
2023/10/01 05:36:18;;;;;;;12.18;7.72;;;11.60;99.90;;;;;;4976139;28;20161;-64
2023/10/01 05:38:46;;;;;;;9.80;7.47;;;11.70;99.90;;;;;;4976537;28;20669;-64
2023/10/01 05:41:15;;;;;;;11.75;7.85;;;11.70;99.90;;;;;;4976478;28;20251;-64
2023/10/01 05:43:50;;;;;;;11.73;6.78;;;11.70;99.90;;;;;;4976701;28;20173;-64
2023/10/01 05:46:22;;;;;;;9.63;7.07;;;11.70;99.90;;;;;;4959105;28;20652;-64
2023/10/01 05:48:55;;;;;;;11.48;7.68;;;11.70;99.90;;;;;;4976453;28;20181;-65
2023/10/01 05:51:30;;;;;;;11.00;7.10;;;11.80;99.90;;;;;;4959211;28;20581;-65
2023/10/01 05:53:57;;;;;;;13.50;7.55;;;11.80;99.90;;;;;;4976354;28;20161;-64
2023/10/01 05:56:36;;;;;;;16.55;7.82;;;11.80;99.90;;;;;;4976426;28;20173;-64
2023/10/01 05:59:03;;;;;;;11.20;7.80;;;11.80;99.90;;;;;;4976492;28;20283;-65
2023/10/01 06:01:33;;;;;;;8.25;6.63;;;11.80;99.90;;;;;;4973069;28;20193;-64
2023/10/01 06:04:00;;;;;;;16.65;7.35;;;11.70;99.90;;;;;;4965216;28;20177;-64
2023/10/01 06:06:27;;;;;;;7.90;6.85;;;11.70;99.90;;;;;;4975785;28;20165;-65
2023/10/01 06:09:00;;;;;;;11.50;7.75;;;11.70;99.90;;;;;;4958559;28;20177;-64
2023/10/01 06:15:08;;;;;;;10.30;7.57;;;11.70;99.90;;;;;;4976512;28;20165;-64
2023/10/01 06:17:00;;;;;;;8.90;7.05;;;11.70;99.90;;;;;;4965650;28;20196;-64
2023/10/01 06:19:33;;;;;;;10.10;7.10;;;11.70;99.90;;;;;;4974826;28;20351;-64
2023/10/01 06:22:12;;;;;;;10.10;7.35;;;11.70;99.90;;;;;;4975629;28;20619;-64
2023/10/01 06:24:46;;;;;;;10.63;7.65;;;11.70;99.90;;;;;;4974222;28;20213;-64
2023/10/01 06:27:13;;;;;;;10.02;7.45;;;11.70;99.90;;;;;;4956976;28;20252;-64
2023/10/01 06:29:51;;;;;;;9.07;7.22;;;11.70;99.90;;;;;;4975157;28;20296;-63
2023/10/01 06:32:22;;;;;;;9.23;6.85;;;11.70;99.90;;;;;;4975606;28;20168;-63
2023/10/01 06:34:49;;;;;;;13.82;8.05;;;11.80;99.90;;;;;;4975695;28;20185;-63
2023/10/01 06:37:15;;;;;;;12.65;7.68;;;11.80;99.90;;;;;;4975471;28;20177;-63
2023/10/01 06:39:41;;;;;;;9.68;7.22;;;11.80;99.90;;;;;;4975415;28;20215;-63
2023/10/01 06:42:20;;;;;;;11.57;7.55;;;11.90;99.90;;;;;;4975767;28;20639;-63
2023/10/01 06:44:58;;;;;;;10.05;8.07;;;12.00;99.90;;;;;;4975698;28;20172;-63
2023/10/01 06:47:26;;;;;;;11.95;8.18;;;12.00;99.90;;;;;;4975194;28;20236;-64
2023/10/01 06:52:34;;;;;;;16.88;7.70;;;12.20;99.90;;;;;;4975044;28;20157;-63
2023/10/01 06:55:01;;;;;;;10.45;7.32;;;12.30;99.90;;;;;;4975229;28;20205;-64
2023/10/01 06:57:31;;;;;;;11.65;8.05;;;12.40;99.90;;;;;;4957646;28;20182;-63
2023/10/01 06:59:57;;;;;;;13.50;9.02;;;12.50;99.90;;;;;;4974906;28;20193;-64
2023/10/01 07:02:27;;;;;;;11.98;7.28;;;12.60;99.90;;;;;;4973861;28;20665;-62
2023/10/01 07:04:56;;;;;;;12.15;8.38;;;12.80;99.90;;;;;;4974953;28;20179;-64
2023/10/01 07:07:28;;;;;;;10.48;6.85;;;12.90;99.90;;;;;;4974806;28;20283;-64
2023/10/01 07:09:56;;;;;;;14.60;7.93;;;13.10;99.90;;;;;;4975098;28;20193;-63
2023/10/01 07:12:25;;;;;;;10.95;7.05;;;13.20;99.90;;;;;;4974948;28;20165;-63
2023/10/01 07:14:51;;;;;;;10.23;6.75;;;13.30;99.90;;;;;;4975175;28;20185;-63
2023/10/01 07:17:19;;;;;;;10.70;7.00;;;13.50;99.90;;;;;;4974744;28;20206;-63
2023/10/01 07:19:47;;;;;;;12.65;7.10;;;13.60;99.90;;;;;;4974746;28;20216;-63
2023/10/01 07:22:14;;;;;;;9.95;6.32;;;13.70;99.90;;;;;;4974545;28;20634;-63
2023/10/01 07:24:41;;;;;;;9.73;6.00;;;13.90;99.90;;;;;;4974806;28;20193;-64
2023/10/01 07:27:11;;;;;;;10.98;6.60;;;14.10;99.90;;;;;;4974660;28;20635;-63
2023/10/01 07:29:42;;;;;;;15.10;6.97;;;14.50;99.90;;;;;;4974614;28;20196;-64
2023/10/01 07:32:12;;;;;;;9.63;6.43;;;14.80;99.90;;;;;;4974933;28;20248;-63
2023/10/01 07:34:45;;;;;;;13.45;6.18;;;15.30;99.90;;;;;;4957373;28;20192;-63
2023/10/01 07:37:23;;;;;;;11.05;6.40;;;15.60;99.90;;;;;;4974473;28;20169;-63
2023/10/01 07:40:17;;;;;;;11.07;6.65;;;15.80;99.90;;;;;;4974677;28;20204;-63
2023/10/01 07:42:54;;;;;;;15.18;7.05;;;15.90;99.90;;;;;;4974605;28;20149;-63
2023/10/01 07:45:21;;;;;;;12.45;7.38;;;16.10;99.90;;;;;;4957150;28;20177;-63
2023/10/01 07:47:48;;;;;;;12.95;6.90;;;16.40;99.90;;;;;;4974472;28;20646;-63
2023/10/01 07:50:14;;;;;;;12.38;6.63;;;16.70;99.90;;;;;;4974411;28;20197;-63
2023/10/01 07:52:41;;;;;;;11.52;6.72;;;16.60;99.90;;;;;;4974204;28;20177;-63
2023/10/01 07:58:16;;;;;;;13.27;6.82;;;16.80;99.90;;;;;;4974429;28;20740;-63
2023/10/01 08:00:43;;;;;;;11.73;6.82;;;17.10;99.90;;;;;;4976811;28;20203;-63
2023/10/01 08:05:47;;;;;;;13.30;7.20;;;17.20;99.90;;;;;;4978848;28;20161;-64
2023/10/01 08:08:15;;;;;;;13.00;6.35;;;17.40;99.90;;;;;;4978550;28;20162;-63
2023/10/01 08:10:43;;;;;;;12.80;6.90;;;17.40;99.90;;;;;;4978099;28;20192;-63
2023/10/01 08:13:23;;;;;;;16.85;7.70;;;17.50;99.90;;;;;;4960781;28;20181;-63
2023/10/01 08:15:59;;;;;;;12.70;7.18;;;17.40;99.90;;;;;;4961037;28;20554;-63
2023/10/01 08:18:34;;;;;;;13.68;6.88;;;17.40;99.90;;;;;;4960600;28;20220;-64
2023/10/01 08:21:02;;;;;;;15.60;7.63;;;17.40;99.90;;;;;;4977863;28;20189;-63
2023/10/01 08:23:31;;;;;;;14.18;7.78;;;17.60;99.90;;;;;;4977934;28;20173;-62
2023/10/01 08:26:39;;;;;;;13.63;7.22;;;17.70;99.90;;;;;;4977814;28;20276;-62
2023/10/01 08:28:55;;;;;;;14.10;7.53;;;17.90;99.90;;;;;;4977789;28;20181;-62
2023/10/01 08:31:43;;;;;;;15.60;7.45;;;18.00;99.90;;;;;;4977876;28;20284;-62
2023/10/01 08:34:22;;;;;;;13.98;8.10;;;18.10;99.90;;;;;;4977551;28;20189;-62
2023/10/01 08:36:57;;;;;;;17.80;8.73;;;18.10;99.90;;;;;;4960218;28;20551;-62
2023/10/01 08:42:12;;;;;;;12.63;7.00;;;18.00;99.90;;;;;;4978217;28;20169;-62
2023/10/01 08:44:46;;;;;;;16.92;8.18;;;18.20;99.90;;;;;;4976303;28;20184;-62
2023/10/01 08:47:34;;;;;;;14.65;8.18;;;18.20;99.90;;;;;;4977696;28;20181;-62
2023/10/01 08:52:55;;;;;;;15.27;8.18;;;18.30;99.90;;;;;;4977434;28;20204;-62
2023/10/01 08:55:25;;;;;;;15.55;7.80;;;18.40;99.90;;;;;;4977632;28;20161;-62
2023/10/01 08:57:55;;;;;;;13.80;7.57;;;18.50;99.90;;;;;;4977188;28;20209;-62
2023/10/01 09:00:24;;;;;;;16.52;7.78;;;18.70;99.90;;;;;;4977616;28;20255;-62
2023/10/01 09:02:50;;;;;;;14.65;8.30;;;18.80;99.90;;;;;;4977323;28;20176;-62
2023/10/01 09:05:23;;;;;;;19.42;7.60;;;18.90;99.90;;;;;;4977258;28;20181;-62
2023/10/01 09:07:51;;;;;;;14.27;6.95;;;19.00;99.90;;;;;;4975704;28;20166;-62
2023/10/01 09:10:20;;;;;;;13.98;7.65;;;19.00;99.90;;;;;;4977136;28;20200;-62
2023/10/01 09:12:46;;;;;;;14.07;7.20;;;19.10;99.90;;;;;;4976186;28;20177;-62
2023/10/01 09:15:29;;;;;;;15.60;7.70;;;19.10;99.90;;;;;;4959789;28;20192;-62
2023/10/01 09:17:58;;;;;;;15.23;7.70;;;19.10;99.90;;;;;;4976808;28;20300;-62
2023/10/01 09:21:03;;;;;;;14.10;7.90;;;19.20;99.90;;;;;;4959513;28;20600;-62
2023/10/01 09:23:58;;;;;;;15.35;7.80;;;19.20;99.90;;;;;;4976854;28;20212;-62
2023/10/01 09:26:39;;;;;;;13.68;8.20;;;19.10;99.90;;;;;;4976856;28;20263;-62
2023/10/01 09:29:20;;;;;;;15.90;8.30;;;19.20;99.90;;;;;;4976899;28;20169;-62
2023/10/01 09:31:57;;;;;;;14.65;8.63;;;19.30;99.90;;;;;;4959408;28;20188;-62
2023/10/01 09:34:35;;;;;;;21.60;9.43;;;19.30;99.90;;;;;;4976942;28;20164;-62
2023/10/01 09:37:11;;;;;;;14.48;7.97;;;19.40;99.90;;;;;;4976524;28;20171;-62
2023/10/01 09:39:41;;;;;;;14.52;8.13;;;19.40;99.90;;;;;;4976589;28;20252;-62
2023/10/01 09:42:24;;;;;;;17.25;8.88;;;19.40;99.90;;;;;;4976823;28;20168;-62
2023/10/01 09:44:52;;;;;;;16.83;7.97;;;19.40;99.90;;;;;;4976656;28;20254;-62
2023/10/01 09:47:24;;;;;;;15.38;8.40;;;19.50;99.90;;;;;;4976765;28;20181;-62
2023/10/01 09:49:55;;;;;;;17.55;8.68;;;19.50;99.90;;;;;;4976637;28;20279;-61
2023/10/01 09:52:27;;;;;;;14.68;8.20;;;19.60;99.90;;;;;;4976168;28;20708;-62
2023/10/01 09:55:29;;;;;;;15.73;7.72;;;19.60;99.90;;;;;;4976488;28;20257;-62
2023/10/01 09:57:56;;;;;;;16.67;8.50;;;19.60;99.90;;;;;;4976484;28;20544;-62
2023/10/01 10:00:39;;;;;;;15.68;8.75;;;19.60;99.90;;;;;;4976221;28;20189;-62
2023/10/01 10:03:11;;;;;;;13.45;7.20;;;19.70;99.90;;;;;;4976401;28;20160;-62
2023/10/01 10:05:40;;;;;;;15.07;8.02;;;19.80;99.90;;;;;;4976640;28;20161;-62
2023/10/01 10:08:15;;;;;;;15.50;7.72;;;19.90;99.90;;;;;;4975939;28;20545;-62
2023/10/01 10:11:06;;;;;;;13.35;7.30;;;19.90;99.90;;;;;;4976067;28;20201;-62
2023/10/01 10:14:00;;;;;;;14.55;7.68;;;20.10;99.90;;;;;;4976074;28;20157;-62
2023/10/01 10:16:32;;;;;;;19.27;8.32;;;20.00;99.90;;;;;;4967719;28;20201;-62
2023/10/01 10:19:13;;;;;;;18.02;8.23;;;20.00;99.90;;;;;;4976096;28;20280;-62
2023/10/01 10:24:37;;;;;;;15.90;7.43;;;20.20;99.90;;;;;;4976000;28;20204;-62
2023/10/01 10:27:08;;;;;;;16.25;8.35;;;20.20;99.90;;;;;;4976023;28;20296;-62
2023/10/01 10:29:56;;;;;;;18.13;7.82;;;20.30;99.90;;;;;;4976165;28;20246;-62
2023/10/01 10:32:31;;;;;;;17.90;9.05;;;20.40;99.90;;;;;;4976205;28;20244;-62
2023/10/01 10:35:03;;;;;;;15.48;7.85;;;20.30;99.90;;;;;;4975716;28;20161;-62
2023/10/01 10:40:23;;;;;;;15.90;8.27;;;20.40;99.90;;;;;;4975816;28;20200;-62
2023/10/01 10:42:58;;;;;;;15.43;7.95;;;20.60;99.90;;;;;;4976593;28;20158;-62
2023/10/01 10:45:42;;;;;;;16.20;7.75;;;20.60;99.90;;;;;;4974939;28;20207;-62
2023/10/01 10:48:09;;;;;;;15.82;8.20;;;20.60;99.90;;;;;;4975343;28;20213;-62
2023/10/01 10:50:50;;;;;;;14.10;7.10;;;20.60;99.90;;;;;;4957895;28;20205;-62
2023/10/01 10:53:21;;;;;;;14.57;7.65;;;20.70;99.90;;;;;;4975206;28;20678;-62
2023/10/01 10:56:10;;;;;;;15.48;8.35;;;20.70;99.90;;;;;;4975266;28;20181;-62
2023/10/01 10:59:01;;;;;;;15.93;8.38;;;20.80;99.90;;;;;;4975499;28;20272;-62
2023/10/01 11:01:43;;;;;;;14.07;8.10;;;21.00;99.90;;;;;;4975315;28;20565;-62
2023/10/01 11:04:09;;;;;;;16.90;8.52;;;21.00;99.90;;;;;;4975208;28;20216;-61
2023/10/01 11:06:39;;;;;;;16.63;8.18;;;21.20;99.90;;;;;;4974856;28;20170;-61
2023/10/01 11:09:25;;;;;;;15.18;8.23;;;21.30;99.90;;;;;;4975022;28;20256;-61
2023/10/01 11:12:07;;;;;;;15.93;7.63;;;21.20;99.90;;;;;;4975420;28;20161;-61
2023/10/01 11:14:37;;;;;;;14.73;7.47;;;21.30;99.90;;;;;;4974993;28;20161;-61
2023/10/01 11:17:06;;;;;;;20.27;8.88;;;21.40;99.90;;;;;;4957496;28;20196;-61
2023/10/01 11:19:36;;;;;;;16.77;8.70;;;21.20;99.90;;;;;;4974837;28;20208;-62
2023/10/01 11:22:04;;;;;;;17.45;8.57;;;21.10;99.90;;;;;;4974641;28;20169;-62
2023/10/01 11:24:33;;;;;;;14.20;8.25;;;21.20;99.90;;;;;;4974622;28;20187;-62
2023/10/01 11:27:18;;;;;;;16.80;8.40;;;21.30;99.90;;;;;;4974994;28;20216;-61
2023/10/01 11:29:58;;;;;;;12.98;7.72;;;21.50;99.90;;;;;;4974708;28;20203;-62
2023/10/01 11:33:29;;;;;;;17.80;8.02;;;21.60;99.90;;;;;;4974914;28;20164;-62
2023/10/01 11:35:33;;;;;;;16.88;8.43;;;21.70;99.90;;;;;;4966336;28;20590;-62
2023/10/01 11:38:11;;;;;;;15.80;8.35;;;21.80;99.90;;;;;;4974511;28;20205;-62
2023/10/01 11:43:27;;;;;;;16.70;8.30;;;21.80;99.90;;;;;;4975514;28;20167;-62
2023/10/01 11:46:21;;;;;;;16.42;7.90;;;21.90;99.90;;;;;;4975122;28;20219;-61
2023/10/01 11:48:56;;;;;;;12.82;7.80;;;22.20;99.90;;;;;;4975514;28;20220;-61
2023/10/01 11:51:41;;;;;;;15.52;7.88;;;22.30;99.90;;;;;;4974569;28;20665;-61
2023/10/01 11:54:09;;;;;;;18.10;7.80;;;22.40;99.90;;;;;;4975022;28;20170;-62
2023/10/01 11:57:04;;;;;;;17.40;8.35;;;22.50;99.90;;;;;;4974449;28;20181;-61
2023/10/01 11:59:36;;;;;;;18.30;8.35;;;22.50;99.90;;;;;;4974274;28;20189;-62
2023/10/01 12:02:21;;;;;;;16.75;7.97;;;22.60;99.90;;;;;;4974959;28;20705;-62
2023/10/01 12:04:57;;;;;;;18.00;8.68;;;22.50;99.90;;;;;;4956984;28;20626;-62
2023/10/01 12:07:26;;;;;;;15.18;8.27;;;22.70;99.90;;;;;;4974631;28;20153;-63
2023/10/01 12:09:55;;;;;;;19.98;8.90;;;22.90;99.90;;;;;;4956932;28;20567;-62
2023/10/01 12:12:27;;;;;;;16.60;8.65;;;23.00;99.90;;;;;;4974341;28;20185;-62
2023/10/01 12:15:33;;;;;;;16.23;8.32;;;23.20;99.90;;;;;;4974838;28;20249;-62
2023/10/01 12:17:46;;;;;;;18.42;8.77;;;23.30;99.90;;;;;;4974069;28;20708;-62
2023/10/01 12:20:30;;;;;;;17.42;8.30;;;23.00;99.90;;;;;;4956900;28;20205;-62
2023/10/01 12:25:53;;;;;;;15.25;7.95;;;23.10;99.90;;;;;;4961748;28;20303;-62
2023/10/01 12:28:29;;;;;;;15.02;8.40;;;23.30;99.90;;;;;;4974535;28;20189;-62
2023/10/01 12:31:02;;;;;;;15.57;8.52;;;23.20;99.90;;;;;;4974188;28;20201;-61
2023/10/01 12:33:42;;;;;;;15.13;8.15;;;23.10;99.90;;;;;;4974371;28;20177;-62
2023/10/01 12:36:32;;;;;;;13.52;8.43;;;23.30;99.90;;;;;;4974668;28;20161;-61
2023/10/01 12:47:50;;;;;;;17.45;8.35;;;23.60;99.90;;;;;;4976891;28;20201;-61
2023/10/01 12:50:26;;;;;;;16.45;8.15;;;23.50;99.90;;;;;;4977661;28;20197;-61
2023/10/01 12:55:51;;;;;;;17.90;8.27;;;23.30;99.90;;;;;;4977702;28;20165;-62
2023/10/01 12:58:20;;;;;;;15.63;7.90;;;23.40;99.90;;;;;;4976849;28;20200;-64
2023/10/01 13:00:47;;;;;;;17.80;8.65;;;23.70;99.90;;;;;;4977273;28;20225;-64
2023/10/01 13:03:19;;;;;;;15.18;8.00;;;23.80;99.90;;;;;;4976066;28;20192;-64
2023/10/01 13:05:48;;;;;;;16.00;8.80;;;23.70;99.90;;;;;;4977284;28;20234;-64
2023/10/01 13:08:27;;;;;;;17.17;9.05;;;23.50;99.90;;;;;;4977019;28;20212;-64
2023/10/01 13:10:57;;;;;;;16.08;8.82;;;23.40;99.90;;;;;;4977417;28;20271;-64
2023/10/01 13:13:30;;;;;;;16.63;9.18;;;23.50;99.90;;;;;;4977731;28;20177;-64
2023/10/01 13:16:00;;;;;;;16.35;9.02;;;23.60;99.90;;;;;;4959746;28;20629;-64
2023/10/01 13:18:31;;;;;;;13.45;7.63;;;23.50;99.90;;;;;;4959872;28;20263;-62
2023/10/01 13:23:31;;;;;;;15.15;7.85;;;23.60;99.90;;;;;;4977288;28;20172;-63
2023/10/01 13:26:07;;;;;;;16.90;8.88;;;23.70;99.90;;;;;;4976804;28;20243;-63
2023/10/01 13:28:45;;;;;;;15.95;8.25;;;23.60;99.90;;;;;;4959506;28;20169;-63
2023/10/01 13:39:26;;;;;;;17.20;9.30;;;23.10;99.90;;;;;;4976855;28;20200;-63
2023/10/01 14:09:48;;;;;;;15.75;8.10;;;22.50;99.90;;;;;;4976077;28;20236;-62
2023/10/01 14:12:41;;;;;;;19.17;8.85;;;22.50;99.90;;;;;;4976290;28;20165;-62
2023/10/01 14:15:02;;;;;;;16.33;8.15;;;22.50;99.90;;;;;;4975736;28;20192;-62
2023/10/01 14:17:28;;;;;;;18.85;9.15;;;22.50;99.90;;;;;;4975890;28;20181;-62
2023/10/01 14:19:55;;;;;;;13.75;7.57;;;22.60;99.90;;;;;;4976011;28;20292;-62
2023/10/01 14:22:21;;;;;;;16.02;9.02;;;22.70;99.90;;;;;;4974357;28;20181;-62
2023/10/01 14:24:48;;;;;;;15.77;9.05;;;22.60;99.90;;;;;;4976047;28;20180;-62
2023/10/01 14:27:29;;;;;;;16.02;8.15;;;22.50;99.90;;;;;;4975739;28;20203;-61
2023/10/01 14:30:24;;;;;;;17.67;7.63;;;22.40;99.90;;;;;;4975885;28;20653;-62
2023/10/01 14:32:41;;;;;;;14.50;7.50;;;22.10;99.90;;;;;;4974348;28;20607;-62
2023/10/01 14:35:16;;;;;;;13.80;8.13;;;22.00;99.90;;;;;;4975534;28;20260;-62
2023/10/01 14:37:54;;;;;;;14.63;8.13;;;22.00;99.90;;;;;;4975143;28;20240;-63
2023/10/01 14:40:25;;;;;;;15.57;7.53;;;21.90;99.90;;;;;;4975316;28;20192;-62
2023/10/01 14:43:02;;;;;;;13.73;8.07;;;21.80;99.90;;;;;;4975453;28;20153;-62
2023/10/01 14:45:33;;;;;;;15.27;8.63;;;21.70;99.90;;;;;;4975347;28;20162;-62
2023/10/01 14:48:06;;;;;;;14.30;7.90;;;21.80;99.90;;;;;;4975109;28;20197;-62